createdAt,value
2018-11-14T01:04:57.896Z,101167.77
2018-11-14T01:07:30.492Z,101175.34
2018-11-14T01:10:03.415Z,101165.03
2018-11-14T01:12:36.036Z,101172.45
2018-11-14T01:15:12.192Z,101178.20
2018-11-14T01:17:44.825Z,101181.23
2018-11-14T01:20:19.578Z,101192.86
2018-11-14T01:22:52.147Z,101190.73
2018-11-14T01:25:24.796Z,101189.20
2018-11-14T01:27:57.665Z,101181.56
2018-11-14T01:30:30.132Z,101179.23
2018-11-14T01:33:02.797Z,101187.14
2018-11-14T01:35:35.450Z,101189.37
2018-11-14T01:38:08.015Z,101185.30
2018-11-14T01:40:40.536Z,101184.56
2018-11-14T01:43:13.168Z,101177.38
2018-11-14T01:45:45.793Z,101173.02
2018-11-14T01:48:18.454Z,101177.38
2018-11-14T01:50:51.016Z,101175.24
2018-11-14T01:53:23.571Z,101181.70
2018-11-14T01:55:57.133Z,101179.47
2018-11-14T01:58:29.670Z,101174.98
2018-11-14T02:01:02.320Z,101176.34
2018-11-14T02:03:35.031Z,101166.86
2018-11-14T02:06:07.660Z,101182.69
2018-11-14T02:08:40.331Z,101177.37
2018-11-14T02:11:12.927Z,101174.72
2018-11-14T02:13:45.544Z,101171.80
2018-11-14T02:16:18.156Z,101171.42
2018-11-14T02:18:51.065Z,101168.86
2018-11-14T02:21:23.686Z,101173.16
2018-11-14T02:23:56.261Z,101169.30
2018-11-14T02:26:28.810Z,101168.34
2018-11-14T02:29:01.341Z,101169.24
2018-11-14T02:31:33.932Z,101167.02
2018-11-14T02:34:06.498Z,101170.92
2018-11-14T02:36:39.067Z,101168.27
2018-11-14T02:39:11.643Z,101173.21
2018-11-14T02:41:44.218Z,101166.53
2018-11-14T02:44:16.793Z,101162.11
2018-11-14T02:46:49.383Z,101158.05
2018-11-14T02:49:21.987Z,101164.88
2018-11-14T02:51:54.516Z,101168.12
2018-11-14T02:54:27.110Z,101165.23
2018-11-14T02:56:59.638Z,101166.09
2018-11-14T02:59:32.207Z,101163.88
2018-11-14T03:02:05.576Z,101170.66
2018-11-14T03:04:38.130Z,101167.72
2018-11-14T03:07:10.807Z,101160.33
2018-11-14T03:09:43.451Z,101162.65
2018-11-14T03:12:16.124Z,101160.53
2018-11-14T03:14:48.719Z,101160.53
2018-11-14T03:17:21.283Z,101157.17
2018-11-14T03:19:54.375Z,101156.30
2018-11-14T03:22:26.951Z,101153.42
2018-11-14T03:24:59.476Z,101148.14
2018-11-14T03:27:32.011Z,101152.69
2018-11-14T03:30:06.652Z,101151.04
2018-11-14T03:32:39.903Z,101149.05
2018-11-14T03:35:13.158Z,101148.50
2018-11-14T03:37:45.763Z,101147.56
2018-11-14T03:40:18.452Z,101140.24
2018-11-14T03:42:51.054Z,101137.76
2018-11-14T03:45:23.580Z,101143.27
2018-11-14T03:47:56.207Z,101143.27
2018-11-14T03:50:28.797Z,101141.92
2018-11-14T03:53:01.350Z,101140.47
2018-11-14T03:55:34.145Z,101142.53
2018-11-14T03:58:06.834Z,101143.20
2018-11-14T04:00:39.324Z,101145.69
2018-11-14T04:03:12.023Z,101140.55
2018-11-14T04:05:44.541Z,101142.44
2018-11-14T04:08:17.116Z,101144.09
2018-11-14T04:10:49.737Z,101146.48
2018-11-14T04:13:22.312Z,101148.01
2018-11-14T04:15:54.950Z,101142.37
2018-11-14T04:18:27.546Z,101146.38
2018-11-14T04:21:00.140Z,101149.27
2018-11-14T04:23:32.734Z,101150.67
2018-11-14T04:26:05.402Z,101148.28
2018-11-14T04:28:37.992Z,101141.78
2018-11-14T04:31:10.479Z,101141.67
2018-11-14T04:33:43.313Z,101139.20
2018-11-14T04:36:15.894Z,101134.03
2018-11-14T04:38:48.503Z,101133.94
2018-11-14T04:41:21.008Z,101134.15
2018-11-14T04:43:53.613Z,101123.70
2018-11-14T04:46:26.143Z,101128.03
2018-11-14T04:48:58.728Z,101123.16
2018-11-14T04:51:31.255Z,101130.78
2018-11-14T04:54:03.906Z,101129.59
2018-11-14T04:56:36.538Z,101128.27
2018-11-14T04:59:09.108Z,101124.82
2018-11-14T05:01:41.696Z,101123.67
2018-11-14T05:04:14.345Z,101119.49
2018-11-14T05:06:46.929Z,101121.39
2018-11-14T05:09:19.479Z,101121.77
2018-11-14T05:11:52.104Z,101117.11
2018-11-14T05:14:24.706Z,101121.66
2018-11-14T05:16:57.334Z,101123.23
2018-11-14T05:19:30.237Z,101112.78
2018-11-14T05:22:02.816Z,101116.99
2018-11-14T05:24:35.491Z,101121.28
2018-11-14T05:27:08.047Z,101127.97
2018-11-14T05:29:40.630Z,101124.48
2018-11-14T05:32:13.262Z,101121.28
2018-11-14T05:34:45.872Z,101120.76
2018-11-14T05:37:18.492Z,101127.98
2018-11-14T05:39:51.327Z,101123.06
2018-11-14T05:42:23.804Z,101111.81
2018-11-14T05:44:56.429Z,101114.66
2018-11-14T05:47:29.047Z,101116.88
2018-11-14T05:50:01.683Z,101116.25
2018-11-14T05:52:34.213Z,101124.11
2018-11-14T05:55:07.449Z,101126.70
2018-11-14T05:57:40.144Z,101129.59
2018-11-14T06:00:30.505Z,101128.30
2018-11-14T06:03:03.893Z,101126.42
2018-11-14T06:05:36.525Z,101125.56
2018-11-14T06:08:09.112Z,101122.19
2018-11-14T06:10:41.821Z,101127.29
2018-11-14T06:13:14.640Z,101118.81
2018-11-14T06:15:47.215Z,101132.38
2018-11-14T06:18:19.798Z,101133.02
2018-11-14T06:20:52.405Z,101126.20
2018-11-14T06:23:24.985Z,101138.66
2018-11-14T06:25:57.581Z,101128.96
2018-11-14T06:28:30.246Z,101139.05
2018-11-14T06:31:02.803Z,101139.09
2018-11-14T06:33:35.413Z,101140.99
2018-11-14T06:36:07.987Z,101138.11
2018-11-14T06:38:40.562Z,101139.05
2018-11-14T06:41:13.118Z,101150.77
2018-11-14T06:43:45.713Z,101153.03
2018-11-14T06:46:18.254Z,101149.91
2018-11-14T06:48:50.815Z,101152.35
2018-11-14T06:51:23.399Z,101153.70
2018-11-14T06:53:56.306Z,101158.38
2018-11-14T06:56:28.888Z,101156.86
2018-11-14T06:59:01.579Z,101156.55
2018-11-14T07:01:34.175Z,101168.83
2018-11-14T07:11:11.543Z,101176.69
2018-11-14T07:13:44.082Z,101169.33
2018-11-14T07:16:16.636Z,101168.56
2018-11-14T07:18:49.272Z,101168.02
2018-11-14T07:21:21.814Z,101171.83
2018-11-14T07:23:54.406Z,101165.27
2018-11-14T07:26:27.036Z,101171.00
2018-11-14T07:28:59.568Z,101173.65
2018-11-14T07:31:32.138Z,101166.91
2018-11-14T07:34:05.404Z,101167.89
2018-11-14T07:36:38.009Z,101166.97
2018-11-14T07:39:10.560Z,101168.98
2018-11-14T07:41:43.204Z,101170.77
2018-11-14T07:44:15.850Z,101183.60
2018-11-14T07:46:48.459Z,101180.52
2018-11-14T07:49:21.150Z,101181.27
2018-11-14T07:51:53.805Z,101189.02
2018-11-14T07:54:26.424Z,101192.33
2018-11-14T07:56:59.020Z,101191.69
2018-11-14T07:59:31.702Z,101201.11
2018-11-14T08:02:04.830Z,101197.86
2018-11-14T08:04:37.501Z,101206.05
2018-11-14T08:07:10.041Z,101195.20
2018-11-14T08:09:42.639Z,101204.86
2018-11-14T08:12:15.226Z,101203.83
2018-11-14T08:14:47.848Z,101210.38
2018-11-14T08:17:20.393Z,101204.67
2018-11-14T08:19:52.981Z,101194.95
2018-11-14T08:22:25.646Z,101192.41
2018-11-14T08:24:58.263Z,101193.52
2018-11-14T08:27:30.834Z,101194.39
2018-11-14T08:30:03.647Z,101194.08
2018-11-14T08:32:36.599Z,101196.16
2018-11-14T08:35:10.118Z,101196.53
2018-11-14T08:37:42.744Z,101191.36
2018-11-14T08:40:15.409Z,101186.61
2018-11-14T08:42:49.066Z,101190.69
2018-11-14T08:45:21.675Z,101190.11
2018-11-14T08:47:54.346Z,101194.68
2018-11-14T08:50:27.028Z,101188.67
2018-11-14T08:52:59.894Z,101200.62
2018-11-14T08:55:32.755Z,101188.70
2018-11-14T08:58:08.736Z,101198.31
2018-11-14T09:00:41.330Z,101195.77
2018-11-14T09:03:14.327Z,101193.03
2018-11-14T09:05:46.940Z,101191.27
2018-11-14T09:08:19.507Z,101195.47
2018-11-14T09:10:52.161Z,101191.02
2018-11-14T09:13:24.700Z,101193.31
2018-11-14T09:15:57.307Z,101201.22
2018-11-14T09:18:29.989Z,101198.20
2018-11-14T09:21:02.547Z,101203.15
2018-11-14T09:23:35.282Z,101203.86
2018-11-14T09:26:07.912Z,101202.56
2018-11-14T09:28:40.484Z,101211.86
2018-11-14T09:31:13.184Z,101220.09
2018-11-14T09:33:45.822Z,101220.56
2018-11-14T09:36:18.489Z,101223.59
2018-11-14T09:38:51.177Z,101219.86
2018-11-14T09:41:23.786Z,101226.30
2018-11-14T09:43:56.377Z,101219.25
2018-11-14T09:46:28.913Z,101204.59
2018-11-14T09:49:01.524Z,101205.80
2018-11-14T09:51:34.700Z,101196.78
2018-11-14T09:54:07.319Z,101202.50
2018-11-14T09:56:39.999Z,101210.64
2018-11-14T09:59:12.585Z,101202.71
2018-11-14T10:01:45.181Z,101202.14
2018-11-14T10:04:17.812Z,101200.08
2018-11-14T10:06:50.390Z,101203.45
2018-11-14T10:09:23.046Z,101192.50
2018-11-14T10:11:55.816Z,101198.19
2018-11-14T10:14:28.446Z,101204.62
2018-11-14T10:17:01.083Z,101202.60
2018-11-14T10:19:33.684Z,101207.41
2018-11-14T10:22:06.299Z,101199.92
2018-11-14T10:24:38.917Z,101188.23
2018-11-14T10:27:11.471Z,101206.03
2018-11-14T10:29:44.072Z,101207.88
2018-11-14T10:32:16.624Z,101210.05
2018-11-14T10:34:49.245Z,101206.09
2018-11-14T10:37:21.899Z,101203.01
2018-11-14T10:39:54.493Z,101198.95
2018-11-14T10:42:27.079Z,101203.10
2018-11-14T10:44:59.665Z,101197.19
2018-11-14T10:47:32.244Z,101195.41
2018-11-14T10:50:06.789Z,101185.20
2018-11-14T10:52:39.596Z,101193.90
2018-11-14T10:56:41.639Z,101191.86
2018-11-14T10:59:14.290Z,101189.53
2018-11-14T11:01:52.663Z,101182.72
2018-11-14T11:04:30.824Z,101176.18
2018-11-14T11:07:09.012Z,101172.18
2018-11-14T11:09:47.265Z,101165.83
2018-11-14T11:12:25.412Z,101168.22
2018-11-14T11:15:03.717Z,101162.53
2018-11-14T11:18:14.112Z,101154.47
2018-11-14T11:20:46.757Z,101149.97
2018-11-14T11:23:19.414Z,101147.16
2018-11-14T11:25:52.063Z,101148.30
2018-11-14T11:28:25.283Z,101158.88
2018-11-14T11:34:08.849Z,101148.09
2018-11-14T11:36:41.838Z,101153.53
2018-11-14T11:39:15.732Z,101141.61
2018-11-14T11:41:48.399Z,101139.67
2018-11-14T11:44:20.929Z,101132.19
2018-11-14T11:46:53.572Z,101122.13
2018-11-14T11:49:26.165Z,101112.05
2018-11-14T11:51:58.789Z,101105.77
2018-11-14T11:54:31.387Z,101114.64
2018-11-14T11:57:04.324Z,101104.50
2018-11-14T11:59:37.079Z,101100.92
2018-11-14T12:02:09.563Z,101103.41
2018-11-14T12:04:42.165Z,101107.61
2018-11-14T12:07:14.911Z,101101.50
2018-11-14T12:09:47.505Z,101106.47
2018-11-14T12:12:20.115Z,101107.44
2018-11-14T12:14:52.936Z,101103.03
2018-11-14T12:17:25.575Z,101111.68
2018-11-14T12:19:58.262Z,101118.18
2018-11-14T12:22:30.889Z,101119.77
2018-11-14T12:25:03.588Z,101122.44
2018-11-14T12:27:36.361Z,101127.77
2018-11-14T12:30:16.176Z,101121.98
2018-11-14T12:32:48.765Z,101128.16
2018-11-14T12:35:21.341Z,101131.38
2018-11-14T12:37:53.868Z,101116.58
2018-11-14T12:40:26.493Z,101109.01
2018-11-14T12:42:59.084Z,101113.31
2018-11-14T12:45:31.655Z,101111.95
2018-11-14T12:48:04.644Z,101117.17
2018-11-14T12:50:37.257Z,101109.80
2018-11-14T12:53:09.816Z,101106.73
2018-11-14T12:55:42.346Z,101101.98
2018-11-14T12:58:14.967Z,101101.41
2018-11-14T13:00:47.625Z,101095.42
2018-11-14T13:03:20.221Z,101086.47
2018-11-14T13:05:52.856Z,101084.91
2018-11-14T13:08:25.497Z,101086.23
2018-11-14T13:10:58.082Z,101096.49
2018-11-14T13:13:46.832Z,101089.05
2018-11-14T13:17:48.895Z,101078.38
2018-11-14T13:20:22.797Z,101076.63
2018-11-14T13:23:10.341Z,101075.53
2018-11-14T13:25:42.916Z,101082.73
2018-11-14T13:28:15.598Z,101083.69
2018-11-14T13:30:48.393Z,101081.88
2018-11-14T13:33:21.018Z,101086.93
2018-11-14T13:35:53.632Z,101088.37
2018-11-14T13:38:26.212Z,101088.08
2018-11-14T13:40:58.804Z,101080.69
2018-11-14T13:43:31.391Z,101091.19
2018-11-14T13:46:04.160Z,101084.95
2018-11-14T13:48:36.782Z,101079.19
2018-11-14T13:51:09.643Z,101080.30
2018-11-14T13:53:42.025Z,101076.57
2018-11-14T13:56:14.656Z,101079.31
2018-11-14T13:58:47.248Z,101079.37
2018-11-14T14:01:19.945Z,101076.70
2018-11-14T14:03:52.426Z,101073.61
2018-11-14T14:06:25.003Z,101073.54
2018-11-14T14:08:57.611Z,101075.71
2018-11-14T14:11:30.237Z,101075.52
2018-11-14T14:14:08.581Z,101067.80
2018-11-14T14:21:23.697Z,101072.73
2018-11-14T14:23:56.304Z,101077.05
2018-11-14T14:26:28.963Z,101070.94
2018-11-14T14:29:01.559Z,101070.69
2018-11-14T14:31:34.202Z,101071.37
2018-11-14T14:34:06.815Z,101066.80
2018-11-14T14:36:39.448Z,101067.22
2018-11-14T14:39:12.849Z,101064.26
2018-11-14T14:41:45.511Z,101058.91
2018-11-14T14:44:18.116Z,101054.66
2018-11-14T14:46:50.787Z,101053.48
2018-11-14T14:49:23.386Z,101059.59
2018-11-14T14:51:56.004Z,101060.68
2018-11-14T14:54:28.552Z,101065.09
2018-11-14T14:57:01.155Z,101062.55
2018-11-14T14:59:33.725Z,101063.82
2018-11-14T15:02:06.457Z,101060.69
2018-11-14T15:04:39.070Z,101059.57
2018-11-14T15:07:11.608Z,101059.47
2018-11-14T15:09:44.366Z,101057.66
2018-11-14T15:12:17.018Z,101059.92
2018-11-14T15:14:49.833Z,101056.31
2018-11-14T15:17:22.468Z,101055.08
2018-11-14T15:19:55.118Z,101054.73
2018-11-14T15:22:27.770Z,101059.95
2018-11-14T15:25:00.379Z,101052.76
2018-11-14T15:27:32.928Z,101049.86
2018-11-14T15:30:07.894Z,101048.89
2018-11-14T15:32:40.884Z,101043.73
2018-11-14T15:35:13.844Z,101038.57
2018-11-14T15:37:46.409Z,101046.27
2018-11-14T15:40:20.230Z,101041.72
2018-11-14T15:42:53.009Z,101038.32
2018-11-14T15:45:27.760Z,101051.02
2018-11-14T15:48:00.429Z,101054.49
2018-11-14T15:50:33.027Z,101053.70
2018-11-14T15:53:05.774Z,101053.02
2018-11-14T15:55:38.406Z,101049.11
2018-11-14T15:58:11.062Z,101054.79
2018-11-14T16:00:43.622Z,101053.50
2018-11-14T16:03:16.302Z,101053.66
2018-11-14T16:05:49.125Z,101039.08
2018-11-14T16:08:21.623Z,101040.86
2018-11-14T16:10:54.345Z,101038.62
2018-11-14T16:13:26.958Z,101041.20
2018-11-14T16:15:59.563Z,101034.77
2018-11-14T16:18:32.184Z,101032.77
2018-11-14T16:21:05.173Z,101034.83
2018-11-14T16:23:37.813Z,101039.58
2018-11-14T16:26:10.389Z,101038.69
2018-11-14T16:28:43.046Z,101033.02
2018-11-14T16:31:15.690Z,101037.02
2018-11-14T16:33:48.417Z,101041.31
2018-11-14T16:36:21.059Z,101037.88
2018-11-14T16:38:53.758Z,101032.41
2018-11-14T16:41:26.510Z,101030.69
2018-11-14T16:43:59.146Z,101034.90
2018-11-14T16:46:31.741Z,101030.93
2018-11-14T16:49:04.410Z,101034.47
2018-11-14T16:51:37.191Z,101027.29
2018-11-14T16:54:09.780Z,101023.33
2018-11-14T16:56:42.376Z,101035.18
2018-11-14T16:59:14.982Z,101027.77
2018-11-14T17:01:47.780Z,101027.39
2018-11-14T17:04:20.373Z,101027.85
2018-11-14T17:06:53.107Z,101033.37
2018-11-14T17:09:25.757Z,101022.45
2018-11-14T17:11:58.465Z,101022.03
2018-11-14T17:14:31.061Z,101023.62
2018-11-14T17:17:03.819Z,101021.62
2018-11-14T17:19:36.477Z,101023.30
2018-11-14T17:22:09.778Z,101025.20
2018-11-14T17:24:42.447Z,101031.00
2018-11-14T17:27:15.303Z,101024.67
2018-11-14T17:29:48.194Z,101033.02
2018-11-14T17:37:02.479Z,101030.19
2018-11-14T17:39:35.090Z,101034.66
2018-11-14T17:42:07.901Z,101043.70
2018-11-14T17:44:40.457Z,101047.33
2018-11-14T17:47:13.162Z,101057.11
2018-11-14T17:49:45.789Z,101059.09
2018-11-14T17:52:18.409Z,101053.40
2018-11-14T17:54:51.107Z,101061.40
2018-11-14T17:57:23.831Z,101069.65
2018-11-14T17:59:56.490Z,101071.86
2018-11-14T18:02:29.192Z,101067.40
2018-11-14T18:05:01.802Z,101074.03
2018-11-14T18:07:34.527Z,101078.69
2018-11-14T18:10:10.971Z,101073.68
2018-11-14T18:12:44.722Z,101078.88
2018-11-14T18:15:17.881Z,101071.84
2018-11-14T18:17:51.437Z,101072.13
2018-11-14T18:20:26.524Z,101072.23
2018-11-14T18:22:59.491Z,101070.69
2018-11-14T18:25:32.158Z,101078.08
2018-11-14T18:28:05.801Z,101075.06
2018-11-14T18:30:38.516Z,101073.94
2018-11-14T18:33:11.190Z,101072.09
2018-11-14T18:35:43.868Z,101074.44
2018-11-14T18:38:16.586Z,101078.31
2018-11-14T18:40:49.264Z,101077.63
2018-11-14T18:43:21.969Z,101082.23
2018-11-14T18:45:54.721Z,101076.64
2018-11-14T18:48:27.405Z,101089.38
2018-11-14T18:51:00.154Z,101078.13
2018-11-14T18:53:32.815Z,101079.61
2018-11-14T18:56:05.781Z,101077.89
2018-11-14T18:58:38.408Z,101073.45
2018-11-14T19:01:11.085Z,101079.80
2018-11-14T19:03:43.749Z,101075.55
2018-11-14T19:06:16.432Z,101075.48
2018-11-14T19:08:49.396Z,101076.16
2018-11-14T19:11:22.024Z,101075.55
2018-11-14T19:13:54.642Z,101069.66
2018-11-14T19:16:27.352Z,101064.88
2018-11-14T19:19:00.141Z,101070.87
2018-11-14T19:21:32.757Z,101068.17
2018-11-14T19:24:06.383Z,101072.54
2018-11-14T19:26:39.048Z,101080.96
2018-11-14T19:29:11.733Z,101081.09
2018-11-14T19:31:44.384Z,101082.18
2018-11-14T19:34:17.130Z,101087.35
2018-11-14T19:36:49.819Z,101084.52
2018-11-14T19:39:22.841Z,101076.46
2018-11-14T19:41:55.659Z,101082.31
2018-11-14T19:44:28.370Z,101075.06
2018-11-14T19:47:01.038Z,101072.98
2018-11-14T19:49:33.736Z,101072.77
2018-11-14T19:52:06.478Z,101067.99
2018-11-14T19:54:39.097Z,101065.97
2018-11-14T19:57:12.308Z,101065.47
2018-11-14T19:59:44.913Z,101069.22
2018-11-14T20:02:17.658Z,101056.15
2018-11-14T20:04:50.541Z,101060.92
2018-11-14T20:07:23.151Z,101062.77
2018-11-14T20:09:55.833Z,101059.21
2018-11-14T20:12:28.704Z,101052.14
2018-11-14T20:15:01.453Z,101049.27
2018-11-14T20:17:34.057Z,101044.89
2018-11-14T20:20:09.287Z,101039.94
2018-11-14T20:22:42.439Z,101041.52
2018-11-14T20:25:15.182Z,101033.42
2018-11-14T20:27:47.991Z,101040.75
2018-11-14T20:30:25.768Z,101031.34
2018-11-14T20:33:00.035Z,101030.72
2018-11-14T20:35:32.711Z,101036.30
2018-11-14T20:38:05.588Z,101031.47
2018-11-14T20:40:39.846Z,101024.45
2018-11-14T20:43:12.629Z,101026.61
2018-11-14T20:45:45.386Z,101028.14
2018-11-14T20:48:18.682Z,101031.51
2018-11-14T20:50:51.296Z,101034.75
2018-11-14T20:53:23.960Z,101029.30
2018-11-14T20:55:56.664Z,101036.10
2018-11-14T20:58:29.352Z,101036.45
2018-11-14T21:01:02.018Z,101035.19
2018-11-14T21:03:34.732Z,101032.91
2018-11-14T21:06:07.484Z,101032.30
2018-11-14T21:08:40.126Z,101031.30
2018-11-14T21:11:12.719Z,101030.83
2018-11-14T21:13:45.468Z,101026.65
2018-11-14T21:16:18.167Z,101029.24
2018-11-14T21:18:50.812Z,101025.47
2018-11-14T21:21:23.538Z,101028.31
2018-11-14T21:23:56.202Z,101018.55
2018-11-14T21:26:28.864Z,101024.58
2018-11-14T21:29:01.499Z,101024.13
2018-11-14T21:31:34.209Z,101026.30
2018-11-14T21:34:06.826Z,101019.19
2018-11-14T21:36:39.505Z,101009.46
2018-11-14T21:39:13.587Z,101009.72
2018-11-14T21:41:46.430Z,101008.86
2018-11-14T21:44:19.037Z,101008.91
2018-11-14T21:46:51.821Z,101009.17
2018-11-14T21:49:26.315Z,101004.99
2018-11-14T21:51:59.535Z,101006.34
2018-11-14T21:54:32.152Z,100994.52
2018-11-14T21:57:05.090Z,100993.16
2018-11-14T21:59:37.843Z,100998.30
2018-11-14T22:02:10.425Z,100993.52
2018-11-14T22:04:43.061Z,100989.22
2018-11-14T22:07:15.708Z,100989.97
2018-11-14T22:09:48.331Z,100984.57
2018-11-14T22:12:20.908Z,100979.66
2018-11-14T22:14:53.553Z,100989.70
2018-11-14T22:17:26.939Z,100980.61
2018-11-14T22:19:59.605Z,100983.93
2018-11-14T22:22:32.215Z,100990.66
2018-11-14T22:25:05.223Z,100990.33
2018-11-14T22:27:38.519Z,100985.29
2018-11-14T22:30:13.628Z,100986.45
2018-11-14T22:32:47.160Z,100985.41
2018-11-14T22:35:21.143Z,100992.63
2018-11-14T22:37:53.773Z,100991.97
2018-11-14T22:40:28.444Z,100987.11
2018-11-14T22:43:01.115Z,100985.84
2018-11-14T22:45:33.781Z,100988.27
2018-11-14T22:48:06.332Z,100981.83
2018-11-14T22:50:39.015Z,100979.82
2018-11-14T22:53:11.556Z,100980.28
2018-11-14T22:55:44.159Z,100980.94
2018-11-14T22:58:16.832Z,100978.24
2018-11-14T23:00:49.446Z,100982.52
2018-11-14T23:03:22.077Z,100982.90
2018-11-14T23:05:54.716Z,100980.47
2018-11-14T23:08:27.387Z,100982.31
2018-11-14T23:10:59.957Z,100977.00
2018-11-14T23:13:32.707Z,100984.08
2018-11-14T23:16:05.928Z,100977.69
2018-11-14T23:18:38.603Z,100983.89
2018-11-14T23:21:11.176Z,100982.81
2018-11-14T23:23:43.724Z,100978.31
2018-11-14T23:26:16.254Z,100980.34
2018-11-14T23:28:48.915Z,100985.09
2018-11-14T23:31:21.515Z,100979.97
2018-11-14T23:33:54.115Z,100981.52
2018-11-14T23:36:26.774Z,100975.05
2018-11-14T23:38:59.323Z,100976.59
2018-11-14T23:41:31.974Z,100980.25
2018-11-14T23:44:04.635Z,100987.03
2018-11-14T23:46:37.176Z,100984.69
2018-11-14T23:49:09.777Z,100979.80
2018-11-14T23:51:42.350Z,100980.69
2018-11-14T23:54:14.917Z,100982.03
2018-11-14T23:56:47.490Z,100974.70
2018-11-14T23:59:20.085Z,100972.86
